Time;durP1;ratioP1;P1;durP2;ratioP2;P2;SDS_P1;SDS_P2;PMS_P1;PMS_P2;Temp;Humidity;BMP_temperature;BMP_pressure;BME280_temperature;BME280_humidity;BME280_pressure;Samples;Min_cycle;Max_cycle;Signal;HPM_P1;HPM_P2
2020/12/24 00:01:51;;;;;;;7.40;7.00;;;10.30;99.90;;;;;;5007649;28;20223;-79
2020/12/24 00:04:17;;;;;;;7.07;6.53;;;10.20;99.90;;;;;;5012511;28;20681;-79
2020/12/24 00:06:43;;;;;;;5.00;4.70;;;10.20;99.90;;;;;;5004411;28;20236;-79
2020/12/24 00:09:09;;;;;;;8.50;8.07;;;10.20;99.90;;;;;;5010948;28;20308;-80
2020/12/24 00:11:37;;;;;;;10.90;10.30;;;10.10;99.90;;;;;;5011456;28;20287;-79
2020/12/24 00:14:04;;;;;;;11.60;10.87;;;10.20;99.90;;;;;;5010872;28;20574;-80
2020/12/24 00:16:30;;;;;;;10.47;9.90;;;10.10;99.90;;;;;;5007376;28;20224;-80
2020/12/24 00:18:56;;;;;;;11.20;10.60;;;10.10;99.90;;;;;;5003549;28;20248;-80
2020/12/24 00:21:22;;;;;;;11.17;10.47;;;10.10;99.90;;;;;;5002706;28;21545;-80
2020/12/24 00:23:49;;;;;;;10.37;9.80;;;10.10;99.90;;;;;;4996827;28;20255;-80
2020/12/24 00:26:15;;;;;;;10.80;10.20;;;10.10;99.90;;;;;;4999551;28;20284;-80
2020/12/24 00:28:42;;;;;;;10.77;10.17;;;10.10;99.90;;;;;;4992505;28;20249;-80
2020/12/24 00:31:09;;;;;;;11.47;10.70;;;10.10;99.90;;;;;;4998459;28;20228;-80
2020/12/24 00:33:35;;;;;;;11.27;10.67;;;10.00;99.90;;;;;;5003058;28;20235;-80
2020/12/24 00:36:02;;;;;;;11.73;11.13;;;10.00;99.90;;;;;;5002975;28;20227;-80
2020/12/24 00:38:28;;;;;;;11.53;10.93;;;10.00;99.90;;;;;;4999313;28;20308;-80
2020/12/24 00:40:55;;;;;;;11.37;10.67;;;9.90;99.90;;;;;;4995829;28;20201;-80
2020/12/24 00:43:28;;;;;;;11.57;10.87;;;10.00;99.90;;;;;;5005351;28;20731;-78
2020/12/24 00:45:55;;;;;;;11.67;11.07;;;9.90;99.90;;;;;;5007625;28;20224;-80
2020/12/24 00:48:21;;;;;;;11.47;10.87;;;10.00;99.90;;;;;;5003563;28;20217;-79
2020/12/24 00:50:48;;;;;;;11.40;10.77;;;10.00;99.90;;;;;;5002899;28;20625;-80
2020/12/24 00:53:14;;;;;;;11.33;10.73;;;10.00;99.90;;;;;;5002885;28;20244;-80
2020/12/24 00:55:40;;;;;;;11.30;10.70;;;10.00;99.90;;;;;;5013239;28;20246;-80
2020/12/24 00:58:07;;;;;;;11.53;10.93;;;10.00;99.90;;;;;;5013396;28;20264;-80
2020/12/24 01:00:34;;;;;;;11.47;10.87;;;10.00;99.90;;;;;;5015012;28;20280;-80
2020/12/24 01:03:02;;;;;;;11.60;11.00;;;10.00;99.90;;;;;;5014270;28;20212;-80
2020/12/24 01:05:28;;;;;;;11.30;10.60;;;10.00;99.90;;;;;;5007257;28;20223;-80
2020/12/24 01:07:54;;;;;;;11.87;11.07;;;10.00;99.90;;;;;;5010814;28;20224;-80
2020/12/24 01:10:20;;;;;;;11.60;11.00;;;10.00;99.90;;;;;;5005820;28;20220;-80
2020/12/24 01:12:47;;;;;;;12.07;11.37;;;9.90;99.90;;;;;;5014717;28;20625;-80
2020/12/24 01:15:13;;;;;;;12.23;11.50;;;10.00;99.90;;;;;;5012943;28;20220;-80
2020/12/24 01:17:40;;;;;;;11.50;10.90;;;10.00;99.90;;;;;;5009153;28;20290;-80
2020/12/24 01:20:07;;;;;;;11.57;10.97;;;9.90;99.90;;;;;;5007361;28;20196;-80
2020/12/24 01:22:34;;;;;;;11.70;11.10;;;10.00;99.90;;;;;;5010172;28;20228;-80
2020/12/24 01:25:01;;;;;;;11.43;10.83;;;9.90;99.90;;;;;;5006229;28;20220;-80
2020/12/24 01:27:27;;;;;;;12.20;11.60;;;10.00;99.90;;;;;;5014522;28;20240;-80
2020/12/24 01:29:53;;;;;;;10.93;10.33;;;9.90;99.90;;;;;;5014148;28;20232;-80
2020/12/24 01:32:20;;;;;;;11.30;10.70;;;9.90;99.90;;;;;;5015577;28;20223;-80
2020/12/24 01:34:46;;;;;;;11.37;10.67;;;9.80;99.90;;;;;;5005960;28;20211;-80
2020/12/24 01:37:13;;;;;;;11.00;10.33;;;9.80;99.90;;;;;;5006152;28;20748;-78
2020/12/24 01:39:39;;;;;;;10.90;10.30;;;9.70;99.90;;;;;;5010085;28;20247;-80
2020/12/24 01:42:06;;;;;;;9.77;9.20;;;9.60;99.90;;;;;;5011758;28;20251;-80
2020/12/24 01:44:32;;;;;;;11.27;10.57;;;9.50;99.90;;;;;;5011207;28;20221;-80
2020/12/24 01:46:58;;;;;;;12.27;11.47;;;9.40;99.90;;;;;;5011748;28;20228;-80
2020/12/24 01:49:25;;;;;;;11.97;11.07;;;9.30;99.90;;;;;;5011857;28;20248;-80
2020/12/24 01:51:53;;;;;;;12.33;11.63;;;9.20;99.90;;;;;;5013995;28;20184;-80
2020/12/24 01:54:25;;;;;;;11.73;11.03;;;9.10;99.90;;;;;;5010302;28;20222;-80
2020/12/24 01:56:52;;;;;;;11.70;11.10;;;9.00;99.90;;;;;;5010026;28;20227;-79
2020/12/24 01:59:19;;;;;;;11.87;11.17;;;8.90;99.90;;;;;;5006472;28;20303;-80
2020/12/24 02:01:45;;;;;;;11.63;10.93;;;8.90;99.90;;;;;;5009547;28;20247;-80
2020/12/24 02:04:12;;;;;;;5.77;5.43;;;8.80;99.90;;;;;;5010134;28;20200;-80
2020/12/24 02:06:39;;;;;;;5.40;5.10;;;8.80;99.90;;;;;;5010772;28;20216;-80
2020/12/24 02:09:05;;;;;;;4.77;4.50;;;8.70;99.90;;;;;;5012645;28;20710;-80
2020/12/24 02:11:33;;;;;;;5.67;5.27;;;8.70;99.90;;;;;;5001761;28;20259;-79
2020/12/24 02:13:59;;;;;;;11.80;11.10;;;8.70;99.90;;;;;;5009282;28;20659;-80
2020/12/24 02:16:26;;;;;;;5.80;5.40;;;8.60;99.90;;;;;;5006132;28;20208;-79
2020/12/24 02:18:52;;;;;;;10.90;10.20;;;8.50;99.90;;;;;;5009094;28;20242;-80
2020/12/24 02:21:19;;;;;;;6.33;5.87;;;8.50;99.90;;;;;;5005892;28;20284;-80
2020/12/24 02:23:46;;;;;;;5.90;5.60;;;8.50;99.90;;;;;;5005966;28;20196;-79
2020/12/24 02:26:13;;;;;;;6.70;6.30;;;8.50;99.90;;;;;;5005108;28;20223;-80
2020/12/24 02:28:39;;;;;;;6.07;5.67;;;8.50;99.90;;;;;;5001379;28;20661;-80
2020/12/24 02:31:06;;;;;;;5.90;5.50;;;8.50;99.90;;;;;;5009730;28;20227;-80
2020/12/24 02:33:32;;;;;;;6.03;5.70;;;8.50;99.90;;;;;;5006802;28;20657;-80
2020/12/24 02:35:58;;;;;;;11.27;10.67;;;8.50;99.90;;;;;;5008705;28;20203;-79
2020/12/24 02:38:26;;;;;;;4.93;4.50;;;8.40;99.90;;;;;;5004220;28;20234;-79
2020/12/24 02:40:52;;;;;;;11.30;10.60;;;8.40;99.90;;;;;;5004505;28;20234;-79
2020/12/24 02:43:18;;;;;;;10.83;10.23;;;8.40;99.90;;;;;;5006254;28;20251;-80
2020/12/24 02:45:45;;;;;;;10.70;10.10;;;8.40;99.90;;;;;;5007192;28;20223;-79
2020/12/24 02:48:11;;;;;;;10.50;9.70;;;8.40;99.90;;;;;;5003373;28;20261;-80
2020/12/24 02:50:37;;;;;;;11.03;10.23;;;8.40;99.90;;;;;;5005563;28;20203;-80
2020/12/24 02:53:03;;;;;;;10.30;9.70;;;8.30;99.90;;;;;;5005403;28;20226;-80
2020/12/24 02:55:31;;;;;;;10.20;9.60;;;8.30;99.90;;;;;;5003758;28;20333;-79
2020/12/24 02:57:57;;;;;;;10.43;9.73;;;8.30;99.90;;;;;;5004532;28;20226;-79
2020/12/24 03:00:23;;;;;;;11.07;10.43;;;8.30;99.90;;;;;;5011262;28;20290;-79
2020/12/24 03:02:49;;;;;;;11.30;10.60;;;8.20;99.90;;;;;;5011660;28;20246;-79
2020/12/24 03:05:16;;;;;;;12.10;11.40;;;8.20;99.90;;;;;;5007345;28;20199;-79
2020/12/24 03:07:42;;;;;;;11.27;10.57;;;8.20;99.90;;;;;;5006767;28;20252;-79
2020/12/24 03:10:08;;;;;;;12.57;11.67;;;8.20;99.90;;;;;;5004948;28;20202;-79
2020/12/24 03:12:35;;;;;;;11.40;10.80;;;8.20;99.90;;;;;;5008655;28;20608;-79
2020/12/24 03:15:02;;;;;;;11.80;11.10;;;8.10;99.90;;;;;;5009359;28;20249;-79
2020/12/24 03:17:28;;;;;;;11.67;10.97;;;8.10;99.90;;;;;;5004126;28;20655;-79
2020/12/24 03:19:54;;;;;;;12.20;11.30;;;8.10;99.90;;;;;;5003476;28;20222;-79
2020/12/24 03:22:21;;;;;;;11.93;11.33;;;8.00;99.90;;;;;;5008060;28;20754;-79
2020/12/24 03:24:47;;;;;;;11.90;11.20;;;8.00;99.90;;;;;;5007461;28;20715;-79
2020/12/24 03:27:13;;;;;;;12.40;11.70;;;8.10;99.90;;;;;;5011296;28;20221;-79
2020/12/24 03:29:40;;;;;;;12.10;11.50;;;8.10;99.90;;;;;;5011078;28;20191;-78
2020/12/24 03:32:06;;;;;;;12.10;11.37;;;8.10;99.90;;;;;;5009339;28;20222;-79
2020/12/24 03:34:33;;;;;;;11.90;11.30;;;8.10;99.90;;;;;;5000010;28;20646;-79
2020/12/24 03:36:59;;;;;;;11.50;10.90;;;8.00;99.90;;;;;;5004060;28;20203;-79
2020/12/24 03:39:25;;;;;;;12.10;11.43;;;8.10;99.90;;;;;;5005612;28;20305;-79
2020/12/24 03:41:52;;;;;;;12.00;11.30;;;8.10;99.90;;;;;;5011933;28;20246;-79
2020/12/24 03:44:18;;;;;;;12.13;11.53;;;8.10;99.90;;;;;;5012141;28;20253;-79
2020/12/24 03:46:45;;;;;;;12.07;11.40;;;8.20;99.90;;;;;;5011228;28;20233;-79
2020/12/24 03:49:11;;;;;;;11.80;11.10;;;8.20;99.90;;;;;;5009506;28;20257;-79
2020/12/24 03:51:37;;;;;;;12.20;11.50;;;8.20;99.90;;;;;;5006822;28;20230;-79
2020/12/24 03:54:04;;;;;;;12.23;11.60;;;8.20;99.90;;;;;;5010513;28;20235;-79
2020/12/24 03:56:30;;;;;;;12.10;11.40;;;8.20;99.90;;;;;;5012044;28;20233;-79
2020/12/24 03:58:56;;;;;;;11.90;11.17;;;8.20;99.90;;;;;;5011408;28;20717;-79
2020/12/24 04:01:24;;;;;;;11.57;10.80;;;8.20;99.90;;;;;;5011702;28;20234;-79
2020/12/24 04:03:52;;;;;;;11.07;10.47;;;8.10;99.90;;;;;;5007277;28;20237;-77
2020/12/24 04:06:18;;;;;;;11.00;10.40;;;8.20;99.90;;;;;;5011659;28;20965;-80
2020/12/24 04:08:44;;;;;;;10.80;10.30;;;8.20;99.90;;;;;;5007931;28;20700;-78
2020/12/24 04:11:10;;;;;;;11.13;10.53;;;8.20;99.90;;;;;;5005837;28;20230;-79
2020/12/24 04:13:37;;;;;;;11.10;10.50;;;8.20;99.90;;;;;;5008577;28;20219;-79
2020/12/24 04:16:03;;;;;;;10.77;10.17;;;8.20;99.90;;;;;;5004395;28;20230;-79
2020/12/24 04:18:29;;;;;;;10.70;10.20;;;8.20;99.90;;;;;;5010948;28;20250;-79
2020/12/24 04:20:56;;;;;;;10.87;10.30;;;8.30;99.90;;;;;;5007151;28;20285;-79
2020/12/24 04:23:23;;;;;;;10.63;10.03;;;8.20;99.90;;;;;;5017577;28;20652;-79
2020/12/24 04:25:50;;;;;;;10.90;10.30;;;8.20;99.90;;;;;;5003848;28;20288;-78
2020/12/24 04:28:16;;;;;;;10.80;10.20;;;8.30;99.90;;;;;;5002517;28;20318;-79
2020/12/24 04:30:43;;;;;;;10.80;10.20;;;8.30;99.90;;;;;;5009635;28;20250;-79
2020/12/24 04:33:09;;;;;;;10.80;10.20;;;8.30;99.90;;;;;;5007521;28;20203;-79
2020/12/24 04:35:36;;;;;;;11.00;10.40;;;8.20;99.90;;;;;;5012622;28;20195;-79
2020/12/24 04:38:03;;;;;;;10.90;10.30;;;8.20;99.90;;;;;;5009742;28;20736;-79
2020/12/24 04:40:30;;;;;;;10.73;10.13;;;8.20;99.90;;;;;;5004861;28;20265;-79
2020/12/24 04:42:57;;;;;;;11.07;10.47;;;8.20;99.90;;;;;;5010446;28;20212;-79
2020/12/24 04:45:25;;;;;;;11.77;11.07;;;8.20;99.90;;;;;;5006339;28;20294;-79
2020/12/24 04:47:57;;;;;;;10.97;10.37;;;8.10;99.90;;;;;;5015878;28;20218;-79
2020/12/24 04:50:25;;;;;;;7.50;7.00;;;8.20;99.90;;;;;;5013711;28;20214;-79
2020/12/24 04:52:52;;;;;;;10.97;10.27;;;8.10;99.90;;;;;;5010513;28;20235;-79
2020/12/24 04:55:19;;;;;;;10.97;10.37;;;8.10;99.90;;;;;;5008401;28;20590;-78
2020/12/24 04:57:48;;;;;;;10.90;10.30;;;8.10;99.90;;;;;;5009706;28;20257;-78
2020/12/24 05:00:15;;;;;;;11.03;10.43;;;8.00;99.90;;;;;;5011805;28;20198;-78
2020/12/24 05:02:41;;;;;;;10.80;10.20;;;8.00;99.90;;;;;;5015457;28;20257;-77
2020/12/24 05:05:07;;;;;;;11.20;10.60;;;7.90;99.90;;;;;;5010903;28;20666;-77
2020/12/24 05:07:34;;;;;;;11.83;11.23;;;7.90;99.90;;;;;;5013299;28;20222;-76
2020/12/24 05:10:00;;;;;;;12.07;11.43;;;7.80;99.90;;;;;;5011187;28;20217;-76
2020/12/24 05:12:28;;;;;;;12.00;11.30;;;7.80;99.90;;;;;;5013809;28;20185;-76
2020/12/24 05:14:55;;;;;;;11.50;10.83;;;7.70;99.90;;;;;;5009702;28;20205;-76
2020/12/24 05:17:23;;;;;;;12.03;11.23;;;7.70;99.90;;;;;;5012270;28;20271;-76
2020/12/24 05:19:59;;;;;;;11.67;10.87;;;7.60;99.90;;;;;;5014184;28;20204;-76
2020/12/24 05:22:26;;;;;;;11.17;10.50;;;7.60;99.90;;;;;;5014658;28;20254;-76
2020/12/24 05:24:52;;;;;;;11.30;10.60;;;7.60;99.90;;;;;;5011846;28;20212;-78
2020/12/24 05:27:21;;;;;;;11.13;10.40;;;7.70;99.90;;;;;;5012791;28;20276;-78
2020/12/24 05:29:50;;;;;;;11.20;10.50;;;7.80;99.90;;;;;;5009533;28;20203;-79
2020/12/24 05:32:26;;;;;;;11.63;10.80;;;7.90;99.90;;;;;;5012004;28;20224;-78
2020/12/24 05:35:06;;;;;;;11.13;10.53;;;7.90;99.90;;;;;;5008760;28;20286;-77
2020/12/24 05:37:32;;;;;;;11.20;10.60;;;7.90;99.90;;;;;;5011826;28;20678;-77
2020/12/24 05:39:58;;;;;;;11.70;10.90;;;7.90;99.90;;;;;;5013393;28;20269;-78
2020/12/24 05:42:25;;;;;;;12.00;11.00;;;7.80;99.90;;;;;;5008394;28;20222;-77
2020/12/24 05:44:52;;;;;;;11.47;10.70;;;7.70;99.90;;;;;;5011982;28;20221;-79
2020/12/24 05:47:27;;;;;;;12.70;12.00;;;7.70;99.90;;;;;;5012189;28;20206;-77
2020/12/24 05:49:53;;;;;;;7.43;7.00;;;7.60;99.90;;;;;;5016674;28;20206;-78
2020/12/24 05:52:19;;;;;;;5.30;4.90;;;7.60;99.90;;;;;;5013817;28;20258;-78
2020/12/24 05:54:47;;;;;;;4.30;4.10;;;7.60;99.90;;;;;;5018469;28;20275;-78
2020/12/24 05:57:14;;;;;;;5.73;5.33;;;7.60;99.90;;;;;;5009969;28;20201;-77
2020/12/24 05:59:41;;;;;;;2.50;2.30;;;7.60;99.90;;;;;;5007289;28;20235;-77
2020/12/24 06:02:17;;;;;;;2.47;2.30;;;7.60;99.90;;;;;;5009278;28;20228;-78
2020/12/24 06:05:05;;;;;;;2.50;2.30;;;7.60;99.90;;;;;;5011591;28;20640;-78
2020/12/24 06:07:35;;;;;;;2.40;2.20;;;7.60;99.90;;;;;;5009423;28;20217;-78
2020/12/24 06:10:09;;;;;;;6.73;2.70;;;7.60;99.90;;;;;;5012182;28;20584;-78
2020/12/24 06:12:50;;;;;;;2.60;2.30;;;7.70;99.90;;;;;;5010804;28;20677;-79
2020/12/24 06:15:17;;;;;;;3.40;2.40;;;7.70;99.90;;;;;;5007327;28;20201;-79
2020/12/24 06:17:47;;;;;;;2.97;2.67;;;7.80;99.90;;;;;;5008961;28;20215;-79
2020/12/24 06:20:18;;;;;;;3.53;3.23;;;7.80;99.90;;;;;;5007119;28;20265;-78
2020/12/24 06:22:44;;;;;;;4.23;2.53;;;7.90;99.90;;;;;;5005756;28;20649;-78
2020/12/24 06:25:12;;;;;;;4.20;2.43;;;7.90;99.90;;;;;;5009111;28;20331;-79
2020/12/24 06:27:43;;;;;;;2.47;2.27;;;7.90;99.90;;;;;;5014377;28;20311;-79
2020/12/24 06:30:13;;;;;;;2.90;2.60;;;7.90;99.90;;;;;;5011728;28;20292;-79
2020/12/24 06:32:47;;;;;;;2.70;2.30;;;7.80;99.90;;;;;;5006115;28;20281;-77
2020/12/24 06:35:33;;;;;;;4.03;2.30;;;7.80;99.90;;;;;;5006954;28;20690;-80
2020/12/24 06:37:59;;;;;;;2.37;2.27;;;7.80;99.90;;;;;;5011613;28;20220;-79
2020/12/24 06:40:29;;;;;;;6.00;5.50;;;7.80;99.90;;;;;;5013291;28;20350;-78
2020/12/24 06:42:56;;;;;;;9.73;9.13;;;7.80;99.90;;;;;;5005935;28;20244;-78
2020/12/24 06:45:41;;;;;;;11.03;10.07;;;7.80;99.90;;;;;;5014603;28;20221;-79
2020/12/24 06:48:18;;;;;;;10.83;10.13;;;7.80;99.90;;;;;;5010501;28;20253;-78
2020/12/24 06:50:46;;;;;;;13.00;12.10;;;7.80;99.90;;;;;;5017729;28;20202;-78
2020/12/24 06:53:27;;;;;;;9.13;8.53;;;7.70;99.90;;;;;;5013782;28;20747;-78
2020/12/24 06:56:20;;;;;;;9.10;8.47;;;7.70;99.90;;;;;;5009015;28;20205;-78
2020/12/24 06:58:48;;;;;;;11.20;10.60;;;7.60;99.90;;;;;;5006901;28;20225;-79
2020/12/24 07:01:15;;;;;;;11.33;10.43;;;7.60;99.90;;;;;;5011791;28;20243;-78
2020/12/24 07:03:42;;;;;;;11.70;10.90;;;7.60;99.90;;;;;;5010275;28;20305;-78
2020/12/24 07:06:10;;;;;;;11.57;10.63;;;7.60;99.90;;;;;;5005418;28;20228;-77
2020/12/24 07:08:47;;;;;;;11.43;10.27;;;7.50;99.90;;;;;;5011932;28;20733;-78
2020/12/24 07:11:41;;;;;;;10.67;10.00;;;7.50;99.90;;;;;;5010433;28;20292;-77
2020/12/24 07:14:24;;;;;;;10.83;10.03;;;7.50;99.90;;;;;;5006774;28;20231;-77
2020/12/24 07:16:52;;;;;;;11.70;10.80;;;7.50;99.90;;;;;;5002934;28;20262;-77
2020/12/24 07:19:18;;;;;;;11.10;10.17;;;7.50;99.90;;;;;;5011310;28;20695;-77
2020/12/24 07:21:48;;;;;;;11.63;10.60;;;7.50;99.90;;;;;;5012468;28;20239;-78
2020/12/24 07:24:16;;;;;;;10.90;10.20;;;7.60;99.90;;;;;;5006417;28;20232;-78
2020/12/24 07:26:43;;;;;;;11.30;10.40;;;7.60;99.90;;;;;;5007493;28;20292;-79
2020/12/24 07:29:13;;;;;;;11.90;11.00;;;7.60;99.90;;;;;;5012057;28;20299;-78
2020/12/24 07:31:40;;;;;;;11.93;11.13;;;7.70;99.90;;;;;;5007407;28;20198;-79
2020/12/24 07:34:07;;;;;;;11.30;10.50;;;7.70;99.90;;;;;;5011004;28;20197;-79
2020/12/24 07:36:33;;;;;;;12.03;11.03;;;7.80;99.90;;;;;;5009367;28;20688;-79
2020/12/24 07:39:00;;;;;;;11.20;10.20;;;7.70;99.90;;;;;;5005688;28;20306;-78
2020/12/24 07:41:27;;;;;;;10.63;9.37;;;7.80;99.90;;;;;;5012942;28;20713;-80
2020/12/24 07:43:53;;;;;;;10.13;9.53;;;7.80;99.90;;;;;;5013911;28;20269;-77
2020/12/24 07:46:22;;;;;;;10.67;10.07;;;7.80;99.90;;;;;;5013932;28;20693;-78
2020/12/24 07:48:49;;;;;;;11.33;10.47;;;7.90;99.90;;;;;;5011591;28;20732;-77
2020/12/24 07:51:16;;;;;;;11.00;10.30;;;7.80;99.90;;;;;;5014372;28;20211;-77
2020/12/24 07:53:43;;;;;;;12.97;11.87;;;7.90;99.90;;;;;;5012845;28;20689;-77
2020/12/24 07:56:10;;;;;;;11.20;10.40;;;7.90;99.90;;;;;;5012133;28;20217;-77
2020/12/24 07:58:37;;;;;;;11.00;10.40;;;7.90;99.90;;;;;;5007728;28;20698;-77
2020/12/24 08:01:05;;;;;;;10.10;9.40;;;8.00;99.90;;;;;;5011455;28;20201;-79
2020/12/24 08:03:31;;;;;;;10.70;10.00;;;8.00;99.90;;;;;;5010487;28;20254;-78
2020/12/24 08:06:06;;;;;;;11.13;10.23;;;8.10;99.90;;;;;;5015894;28;20243;-79
2020/12/24 08:08:35;;;;;;;10.50;9.90;;;8.20;99.90;;;;;;5001150;28;20228;-78
2020/12/24 08:11:02;;;;;;;10.70;9.80;;;8.30;99.90;;;;;;5000646;28;20194;-79
2020/12/24 08:13:29;;;;;;;10.57;9.87;;;8.30;99.90;;;;;;5010328;28;20674;-78
2020/12/24 08:15:57;;;;;;;11.30;10.20;;;8.30;99.90;;;;;;5025958;28;20214;-77
2020/12/24 08:18:30;;;;;;;10.70;10.00;;;8.40;99.90;;;;;;5011354;28;20280;-77
2020/12/24 08:21:03;;;;;;;10.83;10.03;;;8.40;99.90;;;;;;5013928;28;20690;-78
2020/12/24 08:23:37;;;;;;;11.00;10.00;;;8.50;99.90;;;;;;5022903;28;20710;-77
2020/12/24 08:26:05;;;;;;;10.87;9.93;;;8.50;99.90;;;;;;5012089;28;20281;-78
2020/12/24 08:28:33;;;;;;;11.63;10.70;;;8.60;99.90;;;;;;5013411;28;20260;-79
2020/12/24 08:31:01;;;;;;;11.53;10.70;;;8.70;99.90;;;;;;5010753;28;20600;-79
2020/12/24 08:33:27;;;;;;;11.40;10.53;;;8.70;99.90;;;;;;5012684;28;20546;-79
2020/12/24 08:35:53;;;;;;;11.03;10.13;;;8.80;99.90;;;;;;5007046;28;20235;-79
2020/12/24 08:38:20;;;;;;;10.53;9.83;;;8.90;99.90;;;;;;5016594;28;20219;-80
2020/12/24 08:40:46;;;;;;;11.00;10.20;;;8.90;99.90;;;;;;5016201;28;20703;-79
2020/12/24 08:43:14;;;;;;;5.80;2.60;;;9.10;99.90;;;;;;5011955;28;20243;-79
2020/12/24 08:45:45;;;;;;;3.73;2.77;;;9.20;99.90;;;;;;5014717;28;20204;-80
2020/12/24 08:48:27;;;;;;;3.13;2.50;;;9.20;99.90;;;;;;5011563;28;20306;-78
2020/12/24 08:50:54;;;;;;;3.50;2.40;;;9.30;99.90;;;;;;5000573;28;20233;-79
2020/12/24 08:53:24;;;;;;;5.90;2.93;;;9.40;99.90;;;;;;5015586;28;20287;-80
2020/12/24 08:55:51;;;;;;;5.30;2.73;;;9.30;99.90;;;;;;5014044;28;20227;-80
2020/12/24 08:58:17;;;;;;;5.53;2.70;;;9.30;99.90;;;;;;5015508;28;20254;-81
2020/12/24 09:00:44;;;;;;;4.43;2.33;;;9.10;99.90;;;;;;5012746;28;20234;-80
2020/12/24 09:03:24;;;;;;;2.43;2.23;;;8.90;99.90;;;;;;5014014;28;20247;-80
2020/12/24 09:05:51;;;;;;;8.90;8.23;;;8.80;99.90;;;;;;5011384;28;20284;-80
2020/12/24 09:08:25;;;;;;;4.83;3.70;;;8.60;99.90;;;;;;5013050;28;20301;-79
2020/12/24 09:10:52;;;;;;;4.43;4.10;;;8.50;99.90;;;;;;5015291;28;20740;-80
2020/12/24 09:13:18;;;;;;;3.20;2.20;;;8.50;99.90;;;;;;5012241;28;20270;-80
2020/12/24 09:15:45;;;;;;;2.97;2.43;;;8.50;99.90;;;;;;5013830;28;20210;-79
2020/12/24 09:18:12;;;;;;;2.70;2.50;;;8.50;99.90;;;;;;5014083;28;20278;-79
2020/12/24 09:20:39;;;;;;;4.70;2.53;;;8.50;99.90;;;;;;5014049;28;20282;-79
2020/12/24 09:23:09;;;;;;;3.50;2.30;;;8.50;99.90;;;;;;5013913;28;20763;-79
2020/12/24 09:25:37;;;;;;;3.83;2.93;;;8.50;99.90;;;;;;5002757;28;20196;-79
2020/12/24 09:28:05;;;;;;;2.73;2.23;;;8.50;99.90;;;;;;5011074;28;20224;-79
2020/12/24 09:30:32;;;;;;;2.93;2.33;;;8.60;99.90;;;;;;5014050;28;20196;-79
2020/12/24 09:33:00;;;;;;;2.30;2.10;;;8.60;99.90;;;;;;5015326;28;20222;-79
2020/12/24 09:35:28;;;;;;;5.30;2.30;;;8.60;99.90;;;;;;5006551;28;20227;-80
2020/12/24 09:37:55;;;;;;;2.97;2.33;;;8.70;99.90;;;;;;5013784;28;20764;-79
2020/12/24 09:40:22;;;;;;;3.77;2.37;;;8.70;99.90;;;;;;5010943;28;20204;-81
2020/12/24 09:42:48;;;;;;;3.20;2.13;;;8.80;99.90;;;;;;4998994;28;20232;-79
2020/12/24 09:45:15;;;;;;;4.10;3.80;;;8.80;99.90;;;;;;5012119;28;20688;-79
2020/12/24 09:47:43;;;;;;;4.33;3.40;;;8.90;99.90;;;;;;5011772;28;20260;-79
2020/12/24 09:50:10;;;;;;;3.30;3.10;;;9.00;99.90;;;;;;5014210;28;20235;-79
2020/12/24 09:52:36;;;;;;;2.90;2.03;;;9.00;99.90;;;;;;4999006;28;20291;-79
2020/12/24 09:55:03;;;;;;;2.30;2.10;;;9.00;99.90;;;;;;5013281;28;20631;-79
2020/12/24 09:57:29;;;;;;;2.50;2.03;;;9.10;99.90;;;;;;5004718;28;20213;-79
2020/12/24 09:59:55;;;;;;;2.20;2.10;;;9.20;99.90;;;;;;5015263;28;20204;-79
2020/12/24 10:02:23;;;;;;;4.90;3.23;;;9.20;99.90;;;;;;5012384;28;20373;-79
2020/12/24 10:04:49;;;;;;;5.43;5.03;;;9.20;99.90;;;;;;5013641;28;20238;-80
2020/12/24 10:07:16;;;;;;;2.47;2.27;;;9.10;99.90;;;;;;5013673;28;20228;-79
2020/12/24 10:09:42;;;;;;;2.23;2.10;;;9.20;99.90;;;;;;5015029;28;20247;-79
2020/12/24 10:12:09;;;;;;;3.20;2.00;;;9.10;99.90;;;;;;5013564;28;20242;-77
2020/12/24 10:14:35;;;;;;;3.17;2.10;;;9.00;99.90;;;;;;5012906;28;20223;-78
2020/12/24 10:17:04;;;;;;;3.13;2.10;;;9.00;99.90;;;;;;5014268;28;20272;-78
2020/12/24 10:19:31;;;;;;;3.63;2.20;;;9.00;99.90;;;;;;5006244;28;20754;-79
2020/12/24 10:21:57;;;;;;;3.97;2.30;;;9.00;99.90;;;;;;5007608;28;20601;-79
2020/12/24 10:24:24;;;;;;;4.57;4.30;;;8.90;99.90;;;;;;5006370;28;20261;-79
2020/12/24 10:26:54;;;;;;;4.47;4.17;;;8.90;99.90;;;;;;5008257;28;20605;-78
2020/12/24 10:29:20;;;;;;;4.77;4.47;;;8.90;99.90;;;;;;5010657;28;20223;-77
2020/12/24 10:31:46;;;;;;;4.27;4.00;;;8.90;99.90;;;;;;5002420;28;20275;-77
2020/12/24 10:34:13;;;;;;;5.70;5.30;;;8.90;99.90;;;;;;5005142;28;20252;-79
2020/12/24 10:36:39;;;;;;;6.60;6.20;;;8.90;99.90;;;;;;5008008;28;20223;-81
2020/12/24 10:39:07;;;;;;;6.30;5.80;;;9.00;99.90;;;;;;5010548;28;20313;-79
2020/12/24 10:41:34;;;;;;;6.93;6.43;;;9.00;99.90;;;;;;5014252;28;20202;-79
2020/12/24 10:44:00;;;;;;;6.60;6.20;;;9.00;99.90;;;;;;5009632;28;20239;-79
2020/12/24 10:46:27;;;;;;;6.90;6.50;;;9.10;99.90;;;;;;5014815;28;20199;-79
2020/12/24 10:48:53;;;;;;;7.00;6.60;;;9.10;99.90;;;;;;5011157;28;20244;-79
2020/12/24 10:51:19;;;;;;;7.53;6.93;;;9.10;99.90;;;;;;5010998;28;20658;-79
2020/12/24 10:53:46;;;;;;;8.17;7.77;;;9.10;99.90;;;;;;5014335;28;20643;-79
2020/12/24 10:56:13;;;;;;;4.47;4.10;;;9.10;99.90;;;;;;5012578;28;20295;-79
2020/12/24 10:58:42;;;;;;;3.97;3.67;;;9.00;99.90;;;;;;5014099;28;20343;-79
2020/12/24 11:01:10;;;;;;;3.50;3.23;;;9.00;99.90;;;;;;5009545;28;20223;-79
2020/12/24 11:03:37;;;;;;;5.10;4.73;;;8.90;99.90;;;;;;5012722;28;20223;-79
2020/12/24 11:06:04;;;;;;;4.37;3.97;;;8.90;99.90;;;;;;5009400;28;20259;-78
2020/12/24 11:08:30;;;;;;;3.53;3.33;;;8.90;99.90;;;;;;5011923;28;20250;-77
2020/12/24 11:10:57;;;;;;;4.07;3.80;;;8.80;99.90;;;;;;5008858;28;20233;-76
2020/12/24 11:13:23;;;;;;;5.43;5.13;;;8.90;99.90;;;;;;5012838;28;20727;-81
2020/12/24 11:15:50;;;;;;;3.23;2.87;;;8.90;99.90;;;;;;5012260;28;20293;-78
2020/12/24 11:18:17;;;;;;;2.07;1.90;;;9.00;99.90;;;;;;5007641;28;20254;-77
2020/12/24 11:20:43;;;;;;;2.20;2.10;;;9.00;99.90;;;;;;5006371;28;20293;-77
2020/12/24 11:23:09;;;;;;;2.40;2.20;;;9.10;99.90;;;;;;5009059;28;20657;-78
2020/12/24 11:25:35;;;;;;;6.73;6.33;;;9.20;99.90;;;;;;5012641;28;20282;-79
2020/12/24 11:28:02;;;;;;;9.63;8.77;;;9.30;99.90;;;;;;5009773;28;20240;-79
2020/12/24 11:30:28;;;;;;;7.13;6.70;;;9.40;99.90;;;;;;5013611;28;20259;-78
2020/12/24 11:32:56;;;;;;;2.97;2.00;;;9.50;99.90;;;;;;5010106;28;20228;-79
2020/12/24 11:35:22;;;;;;;2.77;2.57;;;9.50;99.90;;;;;;5012067;28;20290;-79
2020/12/24 11:37:48;;;;;;;2.63;2.53;;;9.50;99.90;;;;;;5008446;28;20248;-78
2020/12/24 11:40:15;;;;;;;2.80;2.50;;;9.50;99.90;;;;;;5004612;28;20617;-78
2020/12/24 11:42:41;;;;;;;2.23;2.10;;;9.60;99.90;;;;;;5006975;28;20773;-79
2020/12/24 11:45:07;;;;;;;2.60;2.40;;;9.70;99.90;;;;;;5012199;28;20211;-80
2020/12/24 11:47:34;;;;;;;2.20;2.10;;;9.70;99.90;;;;;;5003943;28;20595;-81
2020/12/24 11:50:02;;;;;;;2.80;2.30;;;9.70;99.90;;;;;;5018264;28;20196;-78
2020/12/24 11:52:28;;;;;;;9.00;8.50;;;9.70;99.90;;;;;;5004686;28;20656;-78
2020/12/24 11:54:54;;;;;;;2.53;2.10;;;9.70;99.90;;;;;;5010123;28;20196;-78
2020/12/24 11:57:20;;;;;;;2.23;2.13;;;9.70;99.90;;;;;;5009113;28;20216;-79
2020/12/24 11:59:47;;;;;;;10.30;9.60;;;9.70;99.90;;;;;;5005121;28;20262;-79
2020/12/24 12:02:13;;;;;;;7.57;7.07;;;9.60;99.90;;;;;;5010642;28;20292;-77
2020/12/24 12:04:39;;;;;;;9.90;9.40;;;9.60;99.90;;;;;;5010301;28;20224;-77
2020/12/24 12:07:06;;;;;;;2.60;2.40;;;9.50;99.90;;;;;;5005123;28;20233;-77
2020/12/24 12:09:32;;;;;;;2.40;2.30;;;9.50;99.90;;;;;;4994770;28;20272;-79
2020/12/24 12:11:59;;;;;;;9.93;9.33;;;9.50;99.90;;;;;;5024675;28;20548;-77
2020/12/24 12:14:25;;;;;;;3.07;2.87;;;9.60;99.90;;;;;;5002961;28;20693;-77
2020/12/24 12:16:51;;;;;;;4.47;4.23;;;9.60;99.90;;;;;;5013801;28;20247;-77
2020/12/24 12:19:18;;;;;;;6.47;6.00;;;9.50;99.90;;;;;;5005672;28;20267;-79
2020/12/24 12:21:45;;;;;;;5.10;4.80;;;9.50;99.90;;;;;;5014137;28;20692;-78
2020/12/24 12:24:12;;;;;;;4.27;4.07;;;9.60;99.90;;;;;;5014884;28;20254;-78
2020/12/24 12:26:39;;;;;;;2.93;2.83;;;9.60;99.90;;;;;;5011311;28;20307;-77
2020/12/24 12:29:09;;;;;;;3.33;3.03;;;9.60;99.90;;;;;;5014103;28;20209;-78
2020/12/24 12:31:35;;;;;;;4.63;4.40;;;9.60;99.90;;;;;;5013994;28;20252;-77
2020/12/24 12:34:02;;;;;;;5.93;3.20;;;9.50;99.90;;;;;;5012474;28;20216;-78
2020/12/24 12:36:28;;;;;;;6.27;5.87;;;9.50;99.90;;;;;;5008542;28;20224;-77
2020/12/24 12:38:54;;;;;;;9.00;8.50;;;9.40;99.90;;;;;;5010495;28;20251;-77
2020/12/24 12:41:22;;;;;;;10.00;9.30;;;9.40;99.90;;;;;;5009398;28;20236;-76
2020/12/24 12:43:49;;;;;;;10.40;9.73;;;9.30;99.90;;;;;;5013819;28;20781;-77
2020/12/24 12:46:20;;;;;;;9.10;8.60;;;9.20;99.90;;;;;;5012100;28;20201;-77
2020/12/24 12:48:47;;;;;;;9.00;8.50;;;9.20;99.90;;;;;;5006593;28;20317;-76